Time;durP1;ratioP1;P1;durP2;ratioP2;P2;SDS_P1;SDS_P2;PMS_P1;PMS_P2;Temp;Humidity;BMP_temperature;BMP_pressure;BME280_temperature;BME280_humidity;BME280_pressure;Samples;Min_cycle;Max_cycle;Signal;HPM_P1;HPM_P2
2021/09/29 00:00:43;;;;;;;20.63;14.57;;;11.20;99.90;;;;;;5149068;27;20061;-47
2021/09/29 00:03:09;;;;;;;19.33;15.40;;;11.30;99.90;;;;;;5145426;27;20503;-47
2021/09/29 00:05:35;;;;;;;19.73;14.63;;;11.20;99.90;;;;;;5139663;27;20050;-50
2021/09/29 00:08:01;;;;;;;22.92;13.68;;;11.20;99.90;;;;;;5138838;27;20095;-48
2021/09/29 00:10:27;;;;;;;16.67;14.80;;;11.20;99.90;;;;;;5143850;27;20054;-47
2021/09/29 00:12:53;;;;;;;19.52;14.85;;;11.20;99.90;;;;;;5140395;27;20570;-47
2021/09/29 00:15:19;;;;;;;18.52;14.45;;;11.10;99.90;;;;;;5123815;27;20102;-47
2021/09/29 00:17:46;;;;;;;18.60;14.90;;;11.10;99.90;;;;;;5148799;27;20055;-54
2021/09/29 00:20:14;;;;;;;15.65;13.27;;;11.10;99.90;;;;;;5148685;27;20737;-49
2021/09/29 00:22:41;;;;;;;18.90;14.52;;;11.10;99.90;;;;;;5144001;27;20137;-47
2021/09/29 00:25:10;;;;;;;19.70;14.25;;;11.10;99.90;;;;;;5132802;27;20558;-48
2021/09/29 00:27:37;;;;;;;17.92;13.50;;;11.10;99.90;;;;;;5138710;27;20051;-50
2021/09/29 00:30:06;;;;;;;20.00;13.90;;;11.10;99.90;;;;;;5145858;27;20097;-48
2021/09/29 00:32:37;;;;;;;17.88;14.18;;;11.10;99.90;;;;;;5146987;27;20042;-50
2021/09/29 00:35:04;;;;;;;17.38;12.80;;;11.10;99.90;;;;;;5142756;27;20042;-50
2021/09/29 00:37:30;;;;;;;21.25;14.75;;;11.00;99.90;;;;;;5139279;27;20510;-49
2021/09/29 00:39:56;;;;;;;19.45;14.43;;;11.00;99.90;;;;;;5135033;27;20525;-47
2021/09/29 00:42:23;;;;;;;19.13;14.18;;;11.00;99.90;;;;;;5135167;27;20395;-51
2021/09/29 00:44:52;;;;;;;15.10;13.18;;;11.00;99.90;;;;;;5115569;28;20059;-48
2021/09/29 00:47:19;;;;;;;20.33;14.00;;;10.90;99.90;;;;;;5130485;27;20059;-48
2021/09/29 00:49:45;;;;;;;21.35;14.68;;;10.90;99.90;;;;;;5148539;27;20074;-54
2021/09/29 00:52:12;;;;;;;18.98;15.00;;;10.90;99.90;;;;;;5141144;27;20503;-50
2021/09/29 00:54:40;;;;;;;15.02;13.15;;;10.90;99.90;;;;;;5147060;27;20554;-47
2021/09/29 00:57:06;;;;;;;19.73;13.07;;;10.90;99.90;;;;;;5146476;27;20090;-48
2021/09/29 00:59:32;;;;;;;16.05;14.43;;;10.90;99.90;;;;;;5143441;27;20063;-49
2021/09/29 01:01:59;;;;;;;17.55;13.75;;;10.80;99.90;;;;;;5133348;27;20049;-51
2021/09/29 01:04:27;;;;;;;16.80;12.85;;;10.80;99.90;;;;;;5144046;27;20047;-48
2021/09/29 01:07:31;;;;;;;17.25;13.23;;;10.80;99.90;;;;;;5139004;27;20053;-48
2021/09/29 01:10:05;;;;;;;17.00;13.75;;;10.80;99.90;;;;;;5042582;28;20057;-49
2021/09/29 01:12:46;;;;;;;19.63;13.48;;;10.70;99.90;;;;;;5048287;28;20052;-46
2021/09/29 01:15:38;;;;;;;17.85;13.38;;;10.70;99.90;;;;;;5045172;28;20057;-47
2021/09/29 01:18:08;;;;;;;17.67;13.55;;;10.70;99.90;;;;;;5038833;28;20049;-47
2021/09/29 01:20:56;;;;;;;17.35;13.00;;;10.70;99.90;;;;;;5044481;28;20100;-48
2021/09/29 01:23:49;;;;;;;18.65;12.90;;;10.70;99.90;;;;;;5029745;28;20054;-48
2021/09/29 01:26:21;;;;;;;23.20;13.82;;;10.70;99.90;;;;;;5040645;28;20548;-49
2021/09/29 01:28:58;;;;;;;21.63;13.13;;;10.70;99.90;;;;;;5036863;28;20242;-46
2021/09/29 01:31:25;;;;;;;16.15;12.73;;;10.70;99.90;;;;;;5030054;28;20061;-45
2021/09/29 01:33:52;;;;;;;17.90;12.77;;;10.80;99.90;;;;;;5047409;28;20076;-49
2021/09/29 01:36:21;;;;;;;15.65;12.48;;;10.70;99.90;;;;;;5038274;28;20049;-45
2021/09/29 01:38:50;;;;;;;20.67;13.55;;;10.70;99.90;;;;;;5033521;28;20118;-48
2021/09/29 01:41:16;;;;;;;16.15;11.90;;;10.70;99.90;;;;;;5020064;28;20056;-49
2021/09/29 01:43:42;;;;;;;16.48;12.60;;;10.70;99.90;;;;;;5028684;28;20053;-46
2021/09/29 01:46:08;;;;;;;16.80;11.95;;;10.70;99.90;;;;;;5105112;27;20066;-49
2021/09/29 01:48:46;;;;;;;24.42;11.75;;;10.70;99.90;;;;;;5137630;27;20074;-49
2021/09/29 01:51:13;;;;;;;16.65;12.50;;;10.70;99.90;;;;;;5145639;27;20115;-48
2021/09/29 01:53:41;;;;;;;14.75;10.95;;;10.70;99.90;;;;;;5133218;27;20818;-47
2021/09/29 01:56:07;;;;;;;14.23;11.10;;;10.70;99.90;;;;;;5152363;27;20784;-46
2021/09/29 01:58:33;;;;;;;13.63;11.40;;;10.70;99.90;;;;;;5152414;27;20065;-46
2021/09/29 02:01:00;;;;;;;13.48;11.10;;;10.70;99.90;;;;;;5143726;27;20043;-47
2021/09/29 02:03:26;;;;;;;17.23;10.85;;;10.70;99.90;;;;;;5149986;27;20114;-48
2021/09/29 02:05:53;;;;;;;15.35;10.68;;;10.70;99.90;;;;;;5144401;27;20138;-48
2021/09/29 02:08:19;;;;;;;13.32;10.88;;;10.70;99.90;;;;;;5132712;27;20774;-47
2021/09/29 02:10:45;;;;;;;13.98;9.65;;;10.70;99.90;;;;;;5123067;28;20104;-46
2021/09/29 02:13:11;;;;;;;15.90;10.32;;;10.70;99.90;;;;;;5139223;27;20047;-48
2021/09/29 02:15:37;;;;;;;14.77;10.88;;;10.70;99.90;;;;;;5131325;27;20043;-48
2021/09/29 02:18:03;;;;;;;13.75;9.02;;;10.70;99.90;;;;;;5130975;28;20477;-48
2021/09/29 02:20:29;;;;;;;13.32;11.15;;;10.70;99.90;;;;;;5116061;27;20130;-46
2021/09/29 02:22:55;;;;;;;11.88;8.75;;;10.70;99.90;;;;;;5145222;27;20403;-50
2021/09/29 02:25:22;;;;;;;13.07;9.52;;;10.70;99.90;;;;;;5131155;27;20076;-50
2021/09/29 02:27:48;;;;;;;11.68;9.35;;;10.70;99.90;;;;;;5131488;27;20058;-47
2021/09/29 02:30:15;;;;;;;12.85;10.23;;;10.70;99.90;;;;;;5114091;27;20051;-46
2021/09/29 02:32:41;;;;;;;19.73;10.35;;;10.70;99.90;;;;;;5147570;27;20067;-49
2021/09/29 02:35:09;;;;;;;12.52;9.57;;;10.70;99.90;;;;;;5146311;27;20104;-46
2021/09/29 02:37:35;;;;;;;17.25;10.38;;;10.70;99.90;;;;;;5130949;27;20538;-49
2021/09/29 02:40:04;;;;;;;15.20;10.32;;;10.70;99.90;;;;;;5130823;28;20625;-48
2021/09/29 02:42:32;;;;;;;15.85;10.10;;;10.70;99.90;;;;;;5121890;27;20502;-49
2021/09/29 02:45:00;;;;;;;13.90;9.35;;;10.70;99.90;;;;;;5139695;27;20823;-47
2021/09/29 02:47:27;;;;;;;13.27;10.07;;;10.70;99.90;;;;;;5132900;27;20058;-49
2021/09/29 02:49:53;;;;;;;16.60;8.75;;;10.70;99.90;;;;;;5130875;27;20059;-47
2021/09/29 02:52:19;;;;;;;12.43;9.75;;;10.70;99.90;;;;;;5145942;27;20047;-47
2021/09/29 02:54:45;;;;;;;14.75;9.80;;;10.80;99.90;;;;;;5144538;27;20058;-49
2021/09/29 02:57:11;;;;;;;14.32;9.90;;;10.80;99.90;;;;;;5131854;27;20047;-52
2021/09/29 02:59:37;;;;;;;14.05;8.50;;;10.80;99.90;;;;;;5097730;27;1086751;-52
2021/09/29 03:02:03;;;;;;;16.38;10.00;;;10.90;99.90;;;;;;5142410;27;20396;-49
2021/09/29 03:04:29;;;;;;;13.40;9.18;;;10.80;99.90;;;;;;5138063;27;20503;-49
2021/09/29 03:06:55;;;;;;;15.38;9.65;;;10.90;99.90;;;;;;5142827;27;20049;-52
2021/09/29 03:09:21;;;;;;;12.38;8.95;;;10.80;99.90;;;;;;5151176;27;20058;-50
2021/09/29 03:11:47;;;;;;;18.27;9.80;;;10.90;99.90;;;;;;5142698;27;20108;-51
2021/09/29 03:14:13;;;;;;;15.80;10.30;;;10.80;99.90;;;;;;5130121;27;20053;-49
2021/09/29 03:16:39;;;;;;;15.18;11.52;;;10.90;99.90;;;;;;5139971;27;20047;-49
2021/09/29 03:19:05;;;;;;;15.95;11.05;;;10.80;99.90;;;;;;5145930;27;20064;-52
2021/09/29 03:21:32;;;;;;;15.60;10.80;;;10.80;99.90;;;;;;5148129;27;20060;-50
2021/09/29 03:23:58;;;;;;;19.98;11.73;;;10.80;99.90;;;;;;5143396;27;20122;-48
2021/09/29 03:26:24;;;;;;;17.38;12.25;;;10.80;99.90;;;;;;5126552;27;20134;-49
2021/09/29 03:28:50;;;;;;;15.82;11.57;;;10.80;99.90;;;;;;5145833;27;20056;-51
2021/09/29 03:31:16;;;;;;;15.68;11.32;;;10.80;99.90;;;;;;5150723;27;20657;-50
2021/09/29 03:33:42;;;;;;;16.95;12.27;;;10.80;99.90;;;;;;5131280;27;20099;-48
2021/09/29 03:36:08;;;;;;;19.13;12.25;;;10.80;99.90;;;;;;5130539;27;20057;-50
2021/09/29 03:38:34;;;;;;;15.43;12.32;;;10.80;99.90;;;;;;5148323;27;20055;-49
2021/09/29 03:41:00;;;;;;;17.45;12.60;;;10.80;99.90;;;;;;5146446;27;20112;-51
2021/09/29 03:43:26;;;;;;;24.25;13.07;;;10.80;99.90;;;;;;5116719;27;20051;-49
2021/09/29 03:45:52;;;;;;;19.95;13.10;;;10.80;99.90;;;;;;5149448;27;20061;-47
2021/09/29 03:48:18;;;;;;;15.85;12.43;;;10.80;99.90;;;;;;5123245;27;20051;-50
2021/09/29 03:50:45;;;;;;;18.23;12.13;;;10.80;99.90;;;;;;5117118;27;20070;-51
2021/09/29 03:53:11;;;;;;;16.60;11.60;;;10.80;99.90;;;;;;5148168;27;20077;-51
2021/09/29 03:55:37;;;;;;;17.95;12.05;;;10.90;99.90;;;;;;5144859;27;20130;-47
2021/09/29 03:58:03;;;;;;;17.77;11.93;;;10.80;99.90;;;;;;5148325;27;20546;-47
2021/09/29 04:00:29;;;;;;;16.67;11.55;;;10.90;99.90;;;;;;5147047;27;20043;-48
2021/09/29 04:02:55;;;;;;;20.35;12.55;;;10.80;99.90;;;;;;5130960;27;20772;-52
2021/09/29 04:05:21;;;;;;;18.08;12.65;;;10.90;99.90;;;;;;5141368;27;20126;-50
2021/09/29 04:07:47;;;;;;;17.35;11.57;;;10.80;99.90;;;;;;5144755;27;20550;-48
2021/09/29 04:10:13;;;;;;;20.05;12.23;;;10.80;99.90;;;;;;5144958;27;20077;-49
2021/09/29 04:12:42;;;;;;;17.65;11.55;;;10.80;99.90;;;;;;5150065;27;20121;-46
2021/09/29 04:15:10;;;;;;;17.30;12.40;;;10.80;99.90;;;;;;5138957;27;20059;-50
2021/09/29 04:17:37;;;;;;;16.75;12.07;;;10.80;99.90;;;;;;5135355;27;20085;-47
2021/09/29 04:20:04;;;;;;;19.23;11.88;;;10.80;99.90;;;;;;5145529;27;20055;-48
2021/09/29 04:22:30;;;;;;;18.30;12.10;;;10.70;99.90;;;;;;5149259;27;20062;-49
2021/09/29 04:24:57;;;;;;;16.75;11.75;;;10.70;99.90;;;;;;5144635;27;20050;-47
2021/09/29 04:27:23;;;;;;;19.20;12.85;;;10.70;99.90;;;;;;5135226;27;20141;-48
2021/09/29 04:29:49;;;;;;;17.90;12.43;;;10.60;99.90;;;;;;5130558;27;20129;-49
2021/09/29 04:32:15;;;;;;;16.83;12.23;;;10.60;99.90;;;;;;5124669;27;20047;-47
2021/09/29 04:34:41;;;;;;;19.40;12.70;;;10.60;99.90;;;;;;5124896;27;20123;-52
2021/09/29 04:37:07;;;;;;;15.35;12.73;;;10.60;99.90;;;;;;5097859;27;20061;-48
2021/09/29 04:39:33;;;;;;;15.20;13.23;;;10.50;99.90;;;;;;5149453;27;20046;-51
2021/09/29 04:42:00;;;;;;;18.30;11.98;;;10.50;99.90;;;;;;5133580;27;20086;-48
2021/09/29 04:44:26;;;;;;;18.27;12.55;;;10.50;99.90;;;;;;5142216;27;20085;-53
2021/09/29 04:46:52;;;;;;;18.50;12.55;;;10.40;99.90;;;;;;5127294;27;20054;-53
2021/09/29 04:49:18;;;;;;;20.25;13.23;;;10.40;99.90;;;;;;5144663;27;20451;-48
2021/09/29 04:51:44;;;;;;;18.52;13.20;;;10.40;99.90;;;;;;5130784;27;20083;-48
2021/09/29 04:54:10;;;;;;;18.67;12.25;;;10.30;99.90;;;;;;5129748;27;20054;-51
2021/09/29 04:56:36;;;;;;;16.70;12.57;;;10.30;99.90;;;;;;5149606;27;20047;-49
2021/09/29 04:59:02;;;;;;;16.70;13.23;;;10.30;99.90;;;;;;5141837;27;20058;-51
2021/09/29 05:01:29;;;;;;;21.10;13.15;;;10.30;99.90;;;;;;5125993;28;20051;-47
2021/09/29 05:03:55;;;;;;;18.95;12.88;;;10.30;99.90;;;;;;5104607;28;20055;-50
2021/09/29 05:06:22;;;;;;;20.88;13.32;;;10.30;99.90;;;;;;5139943;27;20060;-52
2021/09/29 05:08:51;;;;;;;18.55;12.73;;;10.30;99.90;;;;;;5148853;27;20406;-48
2021/09/29 05:11:28;;;;;;;19.27;13.88;;;10.30;99.90;;;;;;5138673;27;20134;-50
2021/09/29 05:13:56;;;;;;;18.67;12.57;;;10.30;99.90;;;;;;5135979;27;20086;-51
2021/09/29 05:16:22;;;;;;;20.08;13.80;;;10.30;99.90;;;;;;5141042;27;20047;-48
2021/09/29 05:18:48;;;;;;;18.05;12.80;;;10.40;99.90;;;;;;5140058;27;20463;-42
2021/09/29 05:21:14;;;;;;;19.40;13.98;;;10.50;99.90;;;;;;5148071;27;20126;-42
2021/09/29 05:23:40;;;;;;;21.35;13.10;;;10.50;99.90;;;;;;5146404;27;20055;-45
2021/09/29 05:26:06;;;;;;;19.27;11.88;;;10.60;99.90;;;;;;5113055;27;20534;-47
2021/09/29 05:28:36;;;;;;;16.92;12.30;;;10.70;99.90;;;;;;5147580;27;20056;-47
2021/09/29 05:31:03;;;;;;;19.38;12.30;;;10.70;99.90;;;;;;5130438;27;20091;-44
2021/09/29 05:33:31;;;;;;;21.00;12.38;;;10.70;99.90;;;;;;5138523;27;20073;-59
2021/09/29 05:36:00;;;;;;;21.67;12.32;;;10.70;99.90;;;;;;5120788;27;20047;-58
2021/09/29 05:38:26;;;;;;;117.00;96.53;;;10.70;99.90;;;;;;5138108;27;20047;-60
2021/09/29 05:40:52;;;;;;;53.00;47.08;;;10.80;99.90;;;;;;5125317;27;20100;-60
2021/09/29 05:43:18;;;;;;;19.65;14.98;;;10.70;99.90;;;;;;5152881;27;20050;-60
2021/09/29 05:45:44;;;;;;;21.60;17.48;;;10.70;99.90;;;;;;5147749;27;20043;-60
2021/09/29 05:48:10;;;;;;;23.80;16.48;;;10.80;99.90;;;;;;5147387;27;20054;-59
2021/09/29 05:50:36;;;;;;;17.77;12.68;;;10.70;99.90;;;;;;5134424;27;20554;-59
2021/09/29 05:53:03;;;;;;;21.58;14.38;;;10.60;99.90;;;;;;5152886;27;20062;-59
2021/09/29 05:55:29;;;;;;;17.80;12.90;;;10.70;99.90;;;;;;5147894;27;20124;-59
2021/09/29 05:57:55;;;;;;;20.13;15.23;;;10.70;99.90;;;;;;5133885;27;20054;-59
2021/09/29 06:00:22;;;;;;;20.83;13.57;;;10.60;99.90;;;;;;5128153;27;20058;-58
2021/09/29 06:02:48;;;;;;;49.85;40.42;;;10.70;99.90;;;;;;5149028;27;20051;-48
2021/09/29 06:05:17;;;;;;;19.30;14.25;;;10.80;99.90;;;;;;5149172;27;20508;-46
2021/09/29 06:07:44;;;;;;;67.72;56.13;;;10.80;99.90;;;;;;5133302;27;20058;-49
2021/09/29 06:10:11;;;;;;;20.42;15.30;;;10.90;99.90;;;;;;5141847;27;20764;-46
2021/09/29 06:12:39;;;;;;;19.85;15.13;;;10.90;99.90;;;;;;5142853;27;20518;-46
2021/09/29 06:15:06;;;;;;;19.27;16.13;;;11.00;99.90;;;;;;5114910;27;20557;-48
2021/09/29 06:17:40;;;;;;;23.40;17.83;;;11.00;99.90;;;;;;5122155;27;20047;-50
2021/09/29 06:20:09;;;;;;;21.73;16.35;;;11.10;99.90;;;;;;5134501;27;20063;-51
2021/09/29 06:22:40;;;;;;;25.63;19.77;;;11.10;99.90;;;;;;5151696;27;20050;-50
2021/09/29 06:25:08;;;;;;;17.50;13.77;;;11.20;99.90;;;;;;5142280;27;20794;-52
2021/09/29 06:27:35;;;;;;;17.20;10.75;;;11.20;99.90;;;;;;5133328;27;20107;-48
2021/09/29 06:30:02;;;;;;;18.55;12.00;;;11.40;99.90;;;;;;5131912;27;20050;-51
2021/09/29 06:32:29;;;;;;;18.50;12.45;;;11.40;99.90;;;;;;5139446;27;20146;-51
2021/09/29 06:34:55;;;;;;;159.25;132.15;;;11.60;99.90;;;;;;5143667;27;20117;-46
2021/09/29 06:37:21;;;;;;;43.60;33.75;;;11.70;99.90;;;;;;5128681;27;20129;-50
2021/09/29 06:39:47;;;;;;;62.50;50.55;;;11.90;99.90;;;;;;5151546;27;20133;-51
2021/09/29 06:42:13;;;;;;;15.40;11.93;;;12.00;99.90;;;;;;5151322;27;20409;-50
2021/09/29 06:44:39;;;;;;;17.98;12.60;;;12.10;99.90;;;;;;5150237;27;20051;-48
2021/09/29 06:47:05;;;;;;;27.10;19.70;;;12.40;99.90;;;;;;5126451;27;20485;-52
2021/09/29 06:49:31;;;;;;;14.07;10.18;;;12.30;99.90;;;;;;5141283;27;20038;-50
2021/09/29 06:51:57;;;;;;;19.25;13.85;;;12.30;99.90;;;;;;5143239;27;20050;-48
2021/09/29 06:54:26;;;;;;;18.33;11.68;;;12.30;99.90;;;;;;5140146;27;20149;-49
2021/09/29 06:56:52;;;;;;;21.02;12.55;;;12.30;99.90;;;;;;5098281;27;20042;-48
2021/09/29 06:59:18;;;;;;;13.93;8.27;;;12.20;99.90;;;;;;5127711;27;20065;-49
2021/09/29 07:01:47;;;;;;;19.15;9.55;;;12.20;99.90;;;;;;5148509;27;20043;-49
2021/09/29 07:04:14;;;;;;;301.55;256.95;;;12.20;99.90;;;;;;5143453;27;20539;-52
2021/09/29 07:06:42;;;;;;;52.05;41.95;;;12.20;99.90;;;;;;5133163;27;20062;-47
2021/09/29 07:09:08;;;;;;;36.22;28.25;;;12.20;99.90;;;;;;5131084;27;20055;-50
2021/09/29 07:11:37;;;;;;;26.00;18.40;;;12.20;99.90;;;;;;5116939;27;20430;-53
2021/09/29 07:14:03;;;;;;;35.30;27.02;;;12.20;99.90;;;;;;5146904;27;20103;-49
2021/09/29 07:16:29;;;;;;;18.25;12.63;;;12.30;99.90;;;;;;5122643;27;20097;-51
2021/09/29 07:19:01;;;;;;;19.90;12.88;;;12.30;99.90;;;;;;5149861;27;20082;-53
2021/09/29 07:21:27;;;;;;;13.82;9.20;;;12.30;99.90;;;;;;5137438;27;20486;-49
2021/09/29 07:23:53;;;;;;;17.85;12.73;;;12.30;99.90;;;;;;5130390;27;20117;-52
2021/09/29 07:26:22;;;;;;;14.25;10.98;;;12.40;99.90;;;;;;5148312;27;20046;-52
2021/09/29 07:28:49;;;;;;;19.77;14.45;;;12.40;99.90;;;;;;5122618;27;20050;-50
2021/09/29 07:31:16;;;;;;;126.35;112.72;;;12.50;99.90;;;;;;5141138;27;20050;-48
2021/09/29 07:33:44;;;;;;;40.65;30.77;;;12.50;99.90;;;;;;5119643;27;20051;-51
2021/09/29 07:36:11;;;;;;;45.50;35.17;;;12.60;99.90;;;;;;5140299;27;20047;-51
2021/09/29 07:38:40;;;;;;;56.75;45.95;;;12.50;99.90;;;;;;5129350;27;20047;-51
2021/09/29 07:41:07;;;;;;;14.88;8.38;;;12.60;99.90;;;;;;5123583;27;20055;-49
2021/09/29 07:43:36;;;;;;;14.75;8.48;;;12.50;99.90;;;;;;5096563;27;20490;-52
2021/09/29 07:46:03;;;;;;;25.50;18.90;;;12.50;99.90;;;;;;5149985;27;20422;-50
2021/09/29 07:48:34;;;;;;;27.90;21.83;;;12.50;99.90;;;;;;5149715;27;20050;-48
2021/09/29 07:51:01;;;;;;;17.45;12.15;;;12.50;99.90;;;;;;5128887;27;20054;-48
2021/09/29 07:53:28;;;;;;;16.60;8.90;;;12.50;99.90;;;;;;5145334;27;20062;-50
2021/09/29 07:55:55;;;;;;;16.98;9.45;;;12.40;99.90;;;;;;5148954;27;20047;-52
2021/09/29 07:58:25;;;;;;;18.13;10.10;;;12.40;99.90;;;;;;5140465;27;20183;-50
2021/09/29 08:01:00;;;;;;;15.52;12.05;;;12.40;99.90;;;;;;5147279;27;20054;-51
2021/09/29 08:03:28;;;;;;;13.98;8.70;;;12.40;99.90;;;;;;5130314;27;20058;-51
2021/09/29 08:05:59;;;;;;;15.02;8.73;;;12.40;99.90;;;;;;5126413;27;20535;-50
2021/09/29 08:08:30;;;;;;;13.55;8.68;;;12.50;99.90;;;;;;5128551;27;20043;-51
2021/09/29 08:10:56;;;;;;;15.73;8.70;;;12.50;99.90;;;;;;5147751;27;20054;-52
2021/09/29 08:13:22;;;;;;;11.98;8.23;;;12.50;99.90;;;;;;5121478;27;20104;-53
2021/09/29 08:15:51;;;;;;;13.63;9.13;;;12.40;99.90;;;;;;5134575;27;20499;-50
2021/09/29 08:18:22;;;;;;;14.00;8.68;;;12.40;99.90;;;;;;5128521;27;20145;-53
2021/09/29 08:20:48;;;;;;;17.05;10.00;;;12.40;99.90;;;;;;5124244;27;20047;-51
2021/09/29 08:23:23;;;;;;;21.08;9.63;;;12.30;99.90;;;;;;5113827;27;20063;-52
2021/09/29 08:31:29;;;;;;;13.75;9.32;;;12.30;99.90;;;;;;5123601;27;20134;-56
2021/09/29 08:34:12;;;;;;;18.75;10.82;;;12.30;99.90;;;;;;5143007;27;20482;-53
2021/09/29 08:36:52;;;;;;;15.10;9.18;;;12.30;99.90;;;;;;5124336;27;20077;-53
2021/09/29 08:39:33;;;;;;;14.35;9.15;;;12.30;99.90;;;;;;5148725;27;20053;-52
2021/09/29 08:42:10;;;;;;;17.90;10.85;;;12.40;99.90;;;;;;5149733;27;20054;-50
2021/09/29 08:53:07;;;;;;;14.23;9.40;;;12.50;99.90;;;;;;5104845;28;20121;-53
2021/09/29 09:17:42;;;;;;;18.65;11.18;;;12.60;99.90;;;;;;5098417;28;20056;-54
2021/09/29 09:20:11;;;;;;;16.83;11.75;;;12.60;99.90;;;;;;5078985;28;20047;-55
2021/09/29 09:22:40;;;;;;;14.00;10.80;;;12.60;99.90;;;;;;5108748;28;20518;-53
2021/09/29 09:25:07;;;;;;;19.10;11.60;;;12.60;99.90;;;;;;5109159;28;20515;-54
2021/09/29 09:27:45;;;;;;;16.33;10.68;;;12.60;99.90;;;;;;5135816;27;20133;-55
2021/09/29 09:30:33;;;;;;;19.77;13.32;;;12.60;99.90;;;;;;5144226;27;20479;-50
2021/09/29 09:33:00;;;;;;;17.90;11.32;;;12.50;99.90;;;;;;5149958;27;20107;-50
2021/09/29 09:35:43;;;;;;;19.92;13.55;;;12.50;99.90;;;;;;5153367;27;20482;-51
2021/09/29 09:38:24;;;;;;;17.17;12.63;;;12.40;99.90;;;;;;5144292;27;20043;-49
2021/09/29 09:41:00;;;;;;;14.18;11.90;;;12.40;99.90;;;;;;5149460;27;20499;-50
2021/09/29 09:43:32;;;;;;;26.58;15.90;;;12.40;99.90;;;;;;5149172;27;20038;-48
2021/09/29 09:46:02;;;;;;;20.90;13.25;;;12.50;99.90;;;;;;5152483;27;20046;-50
2021/09/29 09:48:35;;;;;;;21.85;14.40;;;12.40;99.90;;;;;;5144691;27;20043;-48
2021/09/29 09:51:13;;;;;;;26.58;20.25;;;12.50;99.90;;;;;;5145244;27;20052;-52
2021/09/29 09:53:54;;;;;;;15.50;12.65;;;12.50;99.90;;;;;;5148561;27;20062;-52
2021/09/29 09:56:24;;;;;;;15.35;11.80;;;12.50;99.90;;;;;;5132221;27;20078;-48
2021/09/29 09:58:57;;;;;;;13.45;10.88;;;12.50;99.90;;;;;;5146642;27;20062;-49
2021/09/29 10:01:29;;;;;;;16.80;11.65;;;12.50;99.90;;;;;;5125317;27;20061;-51
2021/09/29 10:04:11;;;;;;;16.00;13.05;;;12.50;99.90;;;;;;5143447;27;20121;-48
2021/09/29 10:06:40;;;;;;;;;;;12.50;99.90;;;;;;5149196;27;20409;-51
2021/09/29 10:12:38;;;;;;;12.98;11.15;;;12.60;99.90;;;;;;5129985;27;20082;-50
2021/09/29 10:26:15;;;;;;;11.00;6.97;;;12.30;99.90;;;;;;5143428;27;20449;-49
2021/09/29 10:28:45;;;;;;;7.07;4.47;;;12.40;99.90;;;;;;5148343;27;20468;-51
2021/09/29 10:31:35;;;;;;;7.97;5.07;;;12.30;99.90;;;;;;5132976;27;20055;-47
2021/09/29 10:34:27;;;;;;;5.97;5.07;;;12.20;99.90;;;;;;5143781;27;20047;-49
2021/09/29 10:42:52;;;;;;;8.40;6.53;;;12.20;99.90;;;;;;5147912;27;20703;-46
2021/09/29 10:45:39;;;;;;;10.13;7.50;;;12.20;99.90;;;;;;5147654;27;20555;-45
2021/09/29 10:51:35;;;;;;;11.40;9.65;;;12.30;99.90;;;;;;5149658;27;20051;-47
2021/09/29 11:06:37;;;;;;;12.63;8.82;;;12.40;99.90;;;;;;5025003;28;20528;-47
2021/09/29 11:09:33;;;;;;;14.90;9.32;;;12.40;99.90;;;;;;5022504;28;20144;-46
2021/09/29 11:31:31;;;;;;;11.05;9.90;;;12.50;99.90;;;;;;5087164;27;20102;-48
2021/09/29 11:34:05;;;;;;;11.50;9.65;;;12.50;99.90;;;;;;5142350;27;20426;-45
2021/09/29 12:12:23;;;;;;;14.60;13.15;;;12.00;99.90;;;;;;5145789;27;20099;-48
2021/09/29 12:14:51;;;;;;;3.58;2.47;;;12.00;99.90;;;;;;5146492;27;20058;-47
2021/09/29 12:17:39;;;;;;;2.47;1.80;;;11.90;99.90;;;;;;5149048;27;20411;-46
2021/09/29 12:20:32;;;;;;;3.15;1.50;;;11.80;99.90;;;;;;5143002;27;20043;-48
2021/09/29 12:23:03;;;;;;;2.33;1.25;;;11.80;99.90;;;;;;5112592;27;20051;-49
2021/09/29 12:25:46;;;;;;;4.03;1.17;;;11.70;99.90;;;;;;5143161;27;20161;-47
2021/09/29 12:28:34;;;;;;;4.18;1.25;;;11.60;99.90;;;;;;5146686;27;20050;-47
2021/09/29 12:36:25;;;;;;;2.30;0.65;;;11.30;99.90;;;;;;5130406;27;20054;-45
2021/09/29 12:38:54;;;;;;;1.45;0.50;;;11.20;99.90;;;;;;5143694;27;20051;-45
2021/09/29 12:41:22;;;;;;;4.18;1.40;;;11.20;99.90;;;;;;5143621;27;20050;-45
2021/09/29 12:44:06;;;;;;;2.83;0.60;;;11.10;99.90;;;;;;5148839;27;20042;-46
2021/09/29 12:46:35;;;;;;;1.55;0.60;;;11.10;99.90;;;;;;5142276;27;20053;-48
2021/09/29 12:49:09;;;;;;;2.63;0.77;;;11.10;99.90;;;;;;5147454;27;20502;-45
2021/09/29 12:51:44;;;;;;;4.65;1.30;;;11.10;99.90;;;;;;5133670;27;20070;-45
2021/09/29 12:54:15;;;;;;;1.02;0.60;;;11.10;99.90;;;;;;5146575;27;20038;-47
2021/09/29 12:56:41;;;;;;;4.03;1.10;;;11.10;99.90;;;;;;5153132;27;20482;-47
2021/09/29 12:59:08;;;;;;;2.47;0.90;;;11.10;99.90;;;;;;5153205;27;20137;-48
2021/09/29 13:01:36;;;;;;;1.80;0.60;;;11.10;99.90;;;;;;5150046;27;20055;-47
2021/09/29 13:04:03;;;;;;;3.47;0.80;;;11.10;99.90;;;;;;5152746;27;20111;-46
2021/09/29 13:06:29;;;;;;;4.97;0.80;;;11.10;99.90;;;;;;5152227;27;20069;-46
2021/09/29 13:08:57;;;;;;;3.47;0.90;;;11.10;99.90;;;;;;5152925;27;20148;-45
2021/09/29 13:11:23;;;;;;;0.85;0.60;;;11.20;99.90;;;;;;5148414;27;20452;-44
2021/09/29 13:13:52;;;;;;;5.38;1.85;;;11.20;99.90;;;;;;5148555;27;20051;-45
2021/09/29 13:16:20;;;;;;;3.38;0.88;;;11.10;99.90;;;;;;5131827;27;20367;-44
2021/09/29 13:18:57;;;;;;;6.32;2.08;;;11.10;99.90;;;;;;5152589;27;20050;-46
2021/09/29 13:24:09;;;;;;;3.97;0.93;;;11.10;99.90;;;;;;5150552;27;20062;-46
2021/09/29 13:37:21;;;;;;;5.00;2.03;;;11.00;99.90;;;;;;5129747;27;20112;-45
2021/09/29 13:39:47;;;;;;;4.38;1.17;;;11.10;99.90;;;;;;5149721;27;20054;-46
2021/09/29 13:42:16;;;;;;;2.28;1.20;;;11.10;99.90;;;;;;5149094;27;20129;-47
2021/09/29 13:44:45;;;;;;;4.22;1.48;;;11.20;99.90;;;;;;5145746;27;20058;-48
2021/09/29 13:47:11;;;;;;;1.30;0.68;;;11.20;99.90;;;;;;5149039;27;20053;-48
2021/09/29 13:49:37;;;;;;;2.10;1.00;;;11.20;99.90;;;;;;5144934;27;20039;-46
2021/09/29 13:52:11;;;;;;;2.97;0.95;;;11.20;99.90;;;;;;5146988;27;20088;-44
2021/09/29 13:54:39;;;;;;;1.90;0.77;;;11.20;99.90;;;;;;5147615;27;20084;-45
2021/09/29 14:30:28;;;;;;;3.40;1.52;;;11.40;99.90;;;;;;5081262;28;20147;-45
2021/09/29 14:33:05;;;;;;;3.40;1.90;;;11.50;99.90;;;;;;5084026;28;20079;-44
2021/09/29 14:35:31;;;;;;;3.90;2.47;;;11.50;99.90;;;;;;5075884;27;20056;-46
2021/09/29 14:38:00;;;;;;;4.65;1.98;;;11.50;99.90;;;;;;5145139;27;20047;-43
2021/09/29 14:40:29;;;;;;;3.40;2.25;;;11.60;99.90;;;;;;5129475;27;20046;-46
2021/09/29 14:42:55;;;;;;;4.05;2.65;;;11.60;99.90;;;;;;5144291;27;20129;-44
2021/09/29 14:45:22;;;;;;;5.30;3.40;;;11.70;99.90;;;;;;5150909;27;20680;-45
2021/09/29 14:47:48;;;;;;;4.32;2.63;;;11.80;99.90;;;;;;5150278;27;20046;-43
2021/09/29 14:50:26;;;;;;;5.18;3.63;;;11.80;99.90;;;;;;5130662;27;20067;-44
2021/09/29 14:53:00;;;;;;;4.97;3.05;;;11.80;99.90;;;;;;5145043;27;20043;-45
2021/09/29 14:55:33;;;;;;;5.25;2.88;;;11.80;99.90;;;;;;5055959;28;20043;-46
2021/09/29 14:58:03;;;;;;;10.02;3.97;;;11.90;99.90;;;;;;5081463;28;20060;-47
2021/09/29 15:00:32;;;;;;;7.35;2.72;;;11.80;99.90;;;;;;5086254;28;20520;-46
2021/09/29 15:02:59;;;;;;;7.00;2.20;;;11.70;99.90;;;;;;5077378;28;20178;-45
2021/09/29 15:05:29;;;;;;;6.68;2.20;;;11.60;99.90;;;;;;5082083;28;20052;-45
2021/09/29 15:07:59;;;;;;;6.65;2.35;;;11.50;99.90;;;;;;5083766;28;20072;-46
2021/09/29 15:10:32;;;;;;;3.92;2.05;;;11.40;99.90;;;;;;5086914;28;20064;-46
2021/09/29 15:13:06;;;;;;;6.15;2.38;;;11.40;99.90;;;;;;5082836;28;20048;-46
2021/09/29 15:15:37;;;;;;;7.93;2.50;;;11.40;99.90;;;;;;5085209;28;20138;-44
2021/09/29 15:18:11;;;;;;;11.10;3.35;;;11.40;99.90;;;;;;5085664;28;20056;-46
2021/09/29 15:20:59;;;;;;;10.27;3.47;;;11.30;99.90;;;;;;5081372;28;20086;-46
2021/09/29 15:55:57;;;;;;;8.48;3.30;;;10.80;99.90;;;;;;5085602;28;20083;-44
2021/09/29 16:01:04;;;;;;;6.53;1.80;;;10.90;99.90;;;;;;5087545;28;20048;-46
2021/09/29 16:37:47;;;;;;;8.23;1.10;;;10.50;99.90;;;;;;5083522;28;20056;-44
2021/09/29 16:40:17;;;;;;;4.85;1.25;;;10.50;99.90;;;;;;5085257;28;20097;-45
2021/09/29 16:42:47;;;;;;;47.25;40.15;;;10.50;99.90;;;;;;5082414;28;20056;-46
2021/09/29 16:45:17;;;;;;;55.35;46.85;;;10.50;99.90;;;;;;5080370;28;20056;-43
2021/09/29 16:47:48;;;;;;;22.88;18.40;;;10.60;99.90;;;;;;5084162;28;20066;-42
2021/09/29 16:50:29;;;;;;;8.18;4.68;;;10.70;99.90;;;;;;5084598;28;20048;-45
2021/09/29 16:53:07;;;;;;;10.33;7.13;;;10.80;99.90;;;;;;5083041;28;20079;-42